createdAt,value
2023-01-11T00:00:11.525Z,1009.53
2023-01-11T00:01:11.717Z,1009.59
2023-01-11T00:02:11.897Z,1009.57
2023-01-11T00:03:12.064Z,1009.58
2023-01-11T00:04:12.279Z,1009.54
2023-01-11T00:05:12.489Z,1009.60
2023-01-11T00:06:12.624Z,1009.59
2023-01-11T00:07:12.820Z,1009.64
2023-01-11T00:08:12.989Z,1009.63
2023-01-11T00:09:13.171Z,1009.61
2023-01-11T00:10:13.351Z,1009.53
2023-01-11T00:11:13.530Z,1009.52
2023-01-11T00:12:13.713Z,1009.54
2023-01-11T00:13:13.892Z,1009.59
2023-01-11T00:14:14.055Z,1009.49
2023-01-11T00:15:14.232Z,1009.54
2023-01-11T00:16:14.469Z,1009.49
2023-01-11T00:17:14.558Z,1009.53
2023-01-11T00:18:14.724Z,1009.49
2023-01-11T00:19:14.916Z,1009.49
2023-01-11T00:20:15.072Z,1009.49
2023-01-11T00:21:15.246Z,1009.46
2023-01-11T00:22:15.429Z,1009.47
2023-01-11T00:23:15.599Z,1009.41
2023-01-11T00:24:15.764Z,1009.39
2023-01-11T00:25:15.961Z,1009.36
2023-01-11T00:26:16.123Z,1009.38
2023-01-11T00:27:16.353Z,1009.36
2023-01-11T00:28:16.396Z,1009.26
2023-01-11T00:29:16.580Z,1009.27
2023-01-11T00:30:16.758Z,1009.30
2023-01-11T00:31:16.987Z,1009.29
2023-01-11T00:32:17.049Z,1009.22
2023-01-11T00:33:17.222Z,1009.28
2023-01-11T00:34:17.399Z,1009.23
2023-01-11T00:35:17.566Z,1009.32
2023-01-11T00:36:17.729Z,1009.19
2023-01-11T00:37:17.909Z,1009.15
2023-01-11T00:38:18.074Z,1009.29
2023-01-11T00:39:18.245Z,1009.27
2023-01-11T00:40:18.412Z,1009.21
2023-01-11T00:41:18.582Z,1009.15
2023-01-11T00:42:18.754Z,1009.11
2023-01-11T00:43:18.939Z,1009.12
2023-01-11T00:44:19.106Z,1009.15
2023-01-11T00:45:19.293Z,1009.13
2023-01-11T00:46:19.593Z,1009.14
2023-01-11T00:47:19.675Z,1009.07
2023-01-11T00:48:19.840Z,1009.04
2023-01-11T00:49:20.016Z,1009.01
2023-01-11T00:50:20.210Z,1008.95
2023-01-11T00:51:20.330Z,1008.96
2023-01-11T00:52:20.528Z,1008.97
2023-01-11T00:53:20.702Z,1008.94
2023-01-11T00:54:20.887Z,1008.98
2023-01-11T00:55:21.060Z,1008.85
2023-01-11T00:56:21.214Z,1008.89
2023-01-11T00:57:21.399Z,1008.87
2023-01-11T00:58:21.560Z,1008.96
2023-01-11T00:59:21.735Z,1008.92
2023-01-11T01:00:21.898Z,1008.94
2023-01-11T01:01:22.086Z,1008.87
2023-01-11T01:02:22.296Z,1008.87
2023-01-11T01:03:22.458Z,1008.85
2023-01-11T01:04:22.649Z,1008.90
2023-01-11T01:05:22.808Z,1008.86
2023-01-11T01:06:23.010Z,1008.78
2023-01-11T01:07:23.187Z,1008.80
2023-01-11T01:08:23.354Z,1008.83
2023-01-11T01:09:23.533Z,1008.76
2023-01-11T01:10:23.691Z,1008.76
2023-01-11T01:11:23.863Z,1008.69
2023-01-11T01:12:24.047Z,1008.75
2023-01-11T01:13:24.241Z,1008.71
2023-01-11T01:14:24.400Z,1008.76
2023-01-11T01:15:24.593Z,1008.70
2023-01-11T01:16:24.755Z,1008.75
2023-01-11T01:17:24.951Z,1008.67
2023-01-11T01:18:25.109Z,1008.71
2023-01-11T01:19:25.279Z,1008.67
2023-01-11T01:20:25.455Z,1008.71
2023-01-11T01:21:25.616Z,1008.75
2023-01-11T01:22:25.813Z,1008.78
2023-01-11T01:23:25.998Z,1008.86
2023-01-11T01:24:26.159Z,1008.78
2023-01-11T01:25:26.341Z,1008.77
2023-01-11T01:26:26.503Z,1008.73
2023-01-11T01:27:26.725Z,1008.81
2023-01-11T01:28:26.759Z,1008.83
2023-01-11T01:29:26.948Z,1008.71
2023-01-11T01:30:27.139Z,1008.77
2023-01-11T01:31:27.352Z,1008.72
2023-01-11T01:32:27.429Z,1008.66
2023-01-11T01:33:27.640Z,1008.70
2023-01-11T01:34:27.809Z,1008.67
2023-01-11T01:35:27.973Z,1008.61
2023-01-11T01:36:28.149Z,1008.58
2023-01-11T01:37:28.344Z,1008.56
2023-01-11T01:38:28.529Z,1008.61
2023-01-11T01:39:28.687Z,1008.56
2023-01-11T01:40:28.845Z,1008.59
2023-01-11T01:41:29.042Z,1008.55
2023-01-11T01:42:29.239Z,1008.63
2023-01-11T01:43:29.429Z,1008.56
2023-01-11T01:44:29.613Z,1008.55
2023-01-11T01:45:29.903Z,1008.53
2023-01-11T01:46:30.013Z,1008.47
2023-01-11T01:47:30.117Z,1008.51
2023-01-11T01:48:30.335Z,1008.45
2023-01-11T01:49:30.494Z,1008.45
2023-01-11T01:50:30.675Z,1008.37
2023-01-11T01:51:30.865Z,1008.38
2023-01-11T01:52:31.060Z,1008.39
2023-01-11T01:53:31.251Z,1008.40
2023-01-11T01:54:31.447Z,1008.37
2023-01-11T01:55:31.609Z,1008.33
2023-01-11T01:56:31.787Z,1008.31
2023-01-11T01:57:31.998Z,1008.23
2023-01-11T01:58:32.061Z,1008.31
2023-01-11T01:59:32.246Z,1008.18
2023-01-11T02:00:32.418Z,1008.17
2023-01-11T02:01:32.635Z,1008.26
2023-01-11T02:02:32.887Z,1008.15
2023-01-11T02:03:32.926Z,1008.13
2023-01-11T02:04:33.107Z,1008.15
2023-01-11T02:05:33.279Z,1008.22
2023-01-11T02:06:33.485Z,1008.21
2023-01-11T02:07:33.637Z,1008.10
2023-01-11T02:08:33.816Z,1008.06
2023-01-11T02:09:33.964Z,1008.11
2023-01-11T02:10:34.150Z,1008.02
2023-01-11T02:11:34.311Z,1008.02
2023-01-11T02:12:34.493Z,1008.00
2023-01-11T02:13:34.669Z,1008.03
2023-01-11T02:14:34.842Z,1008.07
2023-01-11T02:15:34.988Z,1008.07
2023-01-11T02:16:35.286Z,1007.99
2023-01-11T02:17:35.251Z,1008.01
2023-01-11T02:18:35.421Z,1007.90
2023-01-11T02:19:35.577Z,1008.02
2023-01-11T02:20:35.738Z,1007.87
2023-01-11T02:21:35.880Z,1007.98
2023-01-11T02:22:36.051Z,1007.85
2023-01-11T02:23:36.196Z,1007.82
2023-01-11T02:24:36.358Z,1007.83
2023-01-11T02:25:36.519Z,1007.85
2023-01-11T02:26:36.692Z,1007.87
2023-01-11T02:27:36.884Z,1007.88
2023-01-11T02:28:37.063Z,1007.77
2023-01-11T02:29:37.216Z,1007.75
2023-01-11T02:30:37.373Z,1007.68
2023-01-11T02:31:37.551Z,1007.74
2023-01-11T02:32:37.730Z,1007.66
2023-01-11T02:33:37.882Z,1007.68
2023-01-11T02:34:38.036Z,1007.66
2023-01-11T02:35:38.188Z,1007.57
2023-01-11T02:36:38.354Z,1007.55
2023-01-11T02:37:38.530Z,1007.64
2023-01-11T02:38:38.682Z,1007.60
2023-01-11T02:39:38.827Z,1007.65
2023-01-11T02:40:38.996Z,1007.59
2023-01-11T02:41:39.143Z,1007.62
2023-01-11T02:42:39.339Z,1007.57
2023-01-11T02:43:39.475Z,1007.50
2023-01-11T02:44:39.621Z,1007.56
2023-01-11T02:45:39.777Z,1007.43
2023-01-11T02:46:39.972Z,1007.49
2023-01-11T02:47:40.140Z,1007.45
2023-01-11T02:48:40.297Z,1007.47
2023-01-11T02:49:40.445Z,1007.43
2023-01-11T02:50:40.617Z,1007.49
2023-01-11T02:51:40.767Z,1007.51
2023-01-11T02:52:40.932Z,1007.50
2023-01-11T02:53:41.079Z,1007.52
2023-01-11T02:54:41.244Z,1007.50
2023-01-11T02:55:41.389Z,1007.47
2023-01-11T02:56:41.540Z,1007.49
2023-01-11T02:57:41.700Z,1007.44
2023-01-11T02:58:41.906Z,1007.41
2023-01-11T02:59:42.044Z,1007.39
2023-01-11T03:00:42.231Z,1007.44
2023-01-11T03:01:42.391Z,1007.32
2023-01-11T03:02:42.601Z,1007.28
2023-01-11T03:03:42.644Z,1007.25
2023-01-11T03:04:42.821Z,1007.27
2023-01-11T03:05:42.951Z,1007.22
2023-01-11T03:06:43.162Z,1007.23
2023-01-11T03:07:43.302Z,1007.25
2023-01-11T03:08:43.458Z,1007.23
2023-01-11T03:09:43.604Z,1007.23
2023-01-11T03:10:43.774Z,1007.23
2023-01-11T03:11:43.913Z,1007.16
2023-01-11T03:12:44.087Z,1007.12
2023-01-11T03:13:44.254Z,1007.10
2023-01-11T03:14:44.470Z,1007.22
2023-01-11T03:15:44.534Z,1007.10
2023-01-11T03:16:44.597Z,1007.10
2023-01-11T03:17:44.751Z,1007.08
2023-01-11T03:18:44.915Z,1007.22
2023-01-11T03:19:45.064Z,1006.97
2023-01-11T03:20:45.224Z,1007.03
2023-01-11T03:21:45.386Z,1007.03
2023-01-11T03:22:45.567Z,1007.08
2023-01-11T03:23:45.711Z,1006.99
2023-01-11T03:24:45.861Z,1006.98
2023-01-11T03:25:46.011Z,1006.98
2023-01-11T03:26:46.171Z,1006.90
2023-01-11T03:27:46.355Z,1006.96
2023-01-11T03:28:46.503Z,1006.94
2023-01-11T03:29:46.668Z,1006.87
2023-01-11T03:30:46.837Z,1006.97
2023-01-11T03:31:46.978Z,1006.92
2023-01-11T03:32:47.149Z,1006.93
2023-01-11T03:33:47.310Z,1006.92
2023-01-11T03:34:47.473Z,1006.90
2023-01-11T03:35:47.631Z,1006.96
2023-01-11T03:36:47.792Z,1006.96
2023-01-11T03:37:47.975Z,1006.86
2023-01-11T03:38:48.138Z,1006.89
2023-01-11T03:39:48.300Z,1006.84
2023-01-11T03:40:48.448Z,1006.78
2023-01-11T03:41:48.583Z,1006.85
2023-01-11T03:42:48.759Z,1006.81
2023-01-11T03:43:48.900Z,1006.75
2023-01-11T03:44:49.066Z,1006.81
2023-01-11T03:45:49.224Z,1006.83
2023-01-11T03:46:49.386Z,1006.72
2023-01-11T03:47:49.540Z,1006.71
2023-01-11T03:48:49.698Z,1006.78
2023-01-11T03:49:49.849Z,1006.77
2023-01-11T03:50:50.011Z,1006.74
2023-01-11T03:51:50.186Z,1006.80
2023-01-11T03:52:50.377Z,1006.80
2023-01-11T03:53:50.551Z,1006.83
2023-01-11T03:54:50.701Z,1006.67
2023-01-11T03:55:50.861Z,1006.65
2023-01-11T03:56:58.012Z,1006.71
2023-01-11T03:57:53.824Z,1006.51
2023-01-11T03:58:51.327Z,1006.58
2023-01-11T03:59:51.478Z,1006.69
2023-01-11T04:00:51.704Z,1006.54
2023-01-11T04:01:51.720Z,1006.62
2023-01-11T04:02:51.892Z,1006.56
2023-01-11T04:03:52.042Z,1006.49
2023-01-11T04:04:52.231Z,1006.62
2023-01-11T04:05:52.381Z,1006.57
2023-01-11T04:06:52.555Z,1006.50
2023-01-11T04:07:52.701Z,1006.45
2023-01-11T04:08:52.875Z,1006.48
2023-01-11T04:09:53.033Z,1006.76
2023-01-11T04:10:53.189Z,1006.58
2023-01-11T04:11:53.332Z,1006.48
2023-01-11T04:12:53.638Z,1006.46
2023-01-11T04:13:53.592Z,1006.45
2023-01-11T04:14:53.755Z,1006.43
2023-01-11T04:15:53.948Z,1006.37
2023-01-11T04:16:54.070Z,1006.41
2023-01-11T04:17:54.238Z,1006.37
2023-01-11T04:18:54.379Z,1006.33
2023-01-11T04:19:54.540Z,1006.35
2023-01-11T04:20:54.705Z,1006.53
2023-01-11T04:21:54.828Z,1006.31
2023-01-11T04:22:55.003Z,1006.30
2023-01-11T04:23:55.152Z,1006.29
2023-01-11T04:24:55.351Z,1006.34
2023-01-11T04:25:55.403Z,1006.35
2023-01-11T04:26:55.572Z,1006.35
2023-01-11T04:27:55.815Z,1006.25
2023-01-11T04:28:55.858Z,1006.31
2023-01-11T04:29:56.006Z,1006.29
2023-01-11T04:30:56.209Z,1006.46
2023-01-11T04:31:56.430Z,1006.26
2023-01-11T04:32:56.446Z,1006.38
2023-01-11T04:33:56.545Z,1006.27
2023-01-11T04:34:56.635Z,1006.22
2023-01-11T04:35:56.733Z,1006.24
2023-01-11T04:36:56.872Z,1006.17
2023-01-11T04:37:57.054Z,1006.22
2023-01-11T04:38:57.227Z,1006.18
2023-01-11T04:39:57.368Z,1006.10
2023-01-11T04:40:57.524Z,1006.10
2023-01-11T04:41:57.659Z,1006.05
2023-01-11T04:42:58.798Z,1006.05
2023-01-11T04:43:57.964Z,1006.06
2023-01-11T04:44:58.096Z,1006.03
2023-01-11T04:45:58.248Z,1006.06
2023-01-11T04:46:58.330Z,1006.05
2023-01-11T04:47:58.597Z,1005.97
2023-01-11T04:48:58.646Z,1006.01
2023-01-11T04:49:58.713Z,1006.00
2023-01-11T04:50:58.907Z,1005.99
2023-01-11T04:51:59.049Z,1005.99
2023-01-11T04:52:59.230Z,1005.96
2023-01-11T04:53:59.354Z,1006.00
2023-01-11T04:54:59.504Z,1006.01
2023-01-11T04:55:59.652Z,1006.09
2023-01-11T04:56:59.808Z,1006.02
2023-01-11T04:57:59.971Z,1006.04
2023-01-11T04:59:00.144Z,1006.01
2023-01-11T05:00:00.583Z,1006.09
2023-01-11T05:01:00.431Z,1005.96
2023-01-11T05:02:00.570Z,1005.97
2023-01-11T05:03:00.720Z,1005.88
2023-01-11T05:04:00.817Z,1005.92
2023-01-11T05:05:00.945Z,1005.90
2023-01-11T05:06:01.026Z,1005.91
2023-01-11T05:07:01.866Z,1005.85
2023-01-11T05:08:01.264Z,1005.90
2023-01-11T05:09:01.429Z,1005.85
2023-01-11T05:10:01.606Z,1005.83
2023-01-11T05:11:01.739Z,1005.84
2023-01-11T05:12:02.025Z,1005.81
2023-01-11T05:13:02.151Z,1005.85
2023-01-11T05:14:02.170Z,1005.82
2023-01-11T05:15:02.326Z,1005.84
2023-01-11T05:16:02.491Z,1005.85
2023-01-11T05:17:02.631Z,1005.89
2023-01-11T05:18:02.798Z,1005.84
2023-01-11T05:19:02.952Z,1005.82
2023-01-11T05:20:03.091Z,1005.82
2023-01-11T05:21:03.255Z,1005.78
2023-01-11T05:22:03.431Z,1005.78
2023-01-11T05:23:03.623Z,1005.73
2023-01-11T05:24:03.763Z,1005.72
2023-01-11T05:25:03.928Z,1005.69
2023-01-11T05:26:04.088Z,1005.66
2023-01-11T05:27:04.250Z,1005.64
2023-01-11T05:28:04.431Z,1005.58
2023-01-11T05:29:04.597Z,1005.57
2023-01-11T05:30:04.739Z,1005.59
2023-01-11T05:31:04.902Z,1005.58
2023-01-11T05:32:05.048Z,1005.64
2023-01-11T05:33:05.230Z,1005.67
2023-01-11T05:34:05.384Z,1005.71
2023-01-11T05:35:05.599Z,1005.67
2023-01-11T05:36:05.672Z,1005.66
2023-01-11T05:37:05.763Z,1005.74
2023-01-11T05:38:05.924Z,1005.65
2023-01-11T05:39:06.115Z,1005.61
2023-01-11T05:40:06.280Z,1005.66
2023-01-11T05:41:06.487Z,1005.62
2023-01-11T05:42:06.536Z,1005.62
2023-01-11T05:43:06.706Z,1005.57
2023-01-11T05:44:06.860Z,1005.56
2023-01-11T05:45:07.038Z,1005.54
2023-01-11T05:46:07.262Z,1005.50
2023-01-11T05:47:07.415Z,1005.51
2023-01-11T05:48:07.593Z,1005.50
2023-01-11T05:49:07.818Z,1005.42
2023-01-11T05:50:07.866Z,1005.48
2023-01-11T05:51:08.044Z,1005.50
2023-01-11T05:52:08.199Z,1005.46
2023-01-11T05:53:08.383Z,1005.48
2023-01-11T05:54:08.558Z,1005.42
2023-01-11T05:55:08.728Z,1005.45
2023-01-11T05:56:08.880Z,1005.42
2023-01-11T05:57:09.051Z,1005.44
2023-01-11T05:58:09.247Z,1005.42
2023-01-11T05:59:09.408Z,1005.41
2023-01-11T06:00:09.571Z,1005.43
2023-01-11T06:01:09.735Z,1005.48
2023-01-11T06:02:10.036Z,1005.38
2023-01-11T06:03:10.097Z,1005.36
2023-01-11T06:04:10.188Z,1005.36
2023-01-11T06:05:10.371Z,1005.41
2023-01-11T06:06:10.569Z,1005.38
2023-01-11T06:07:10.608Z,1005.36
2023-01-11T06:08:10.787Z,1005.31
2023-01-11T06:09:10.948Z,1005.32
2023-01-11T06:10:11.278Z,1005.33
2023-01-11T06:11:11.224Z,1005.31
2023-01-11T06:12:11.410Z,1005.24
2023-01-11T06:13:11.575Z,1005.26
2023-01-11T06:14:11.758Z,1005.21
2023-01-11T06:15:11.864Z,1005.23
2023-01-11T06:16:12.268Z,1005.24
2023-01-11T06:17:12.095Z,1005.19
2023-01-11T06:18:12.297Z,1005.18
2023-01-11T06:19:13.000Z,1005.16
2023-01-11T06:20:12.559Z,1005.15
2023-01-11T06:21:12.609Z,1005.16
2023-01-11T06:22:12.779Z,1005.18
2023-01-11T06:23:12.948Z,1005.21
2023-01-11T06:24:13.161Z,1005.22
2023-01-11T06:25:13.233Z,1005.26
2023-01-11T06:26:13.435Z,1005.24
2023-01-11T06:27:13.493Z,1005.27
2023-01-11T06:28:13.714Z,1005.23
2023-01-11T06:29:13.760Z,1005.16
2023-01-11T06:30:13.983Z,1005.15
2023-01-11T06:31:16.977Z,1005.18
2023-01-11T06:32:14.296Z,1005.14
2023-01-11T06:33:14.476Z,1005.13
2023-01-11T06:34:14.593Z,1005.10
2023-01-11T06:35:14.753Z,1005.12
2023-01-11T06:36:14.932Z,1005.04
2023-01-11T06:37:15.099Z,1004.99
2023-01-11T06:38:15.450Z,1005.08
2023-01-11T06:39:15.400Z,1005.05
2023-01-11T06:40:15.780Z,1005.09
2023-01-11T06:41:15.746Z,1005.03
2023-01-11T06:42:16.019Z,1005.02
2023-01-11T06:43:16.187Z,1005.00
2023-01-11T06:44:16.273Z,1005.05
2023-01-11T06:45:16.446Z,1005.04
2023-01-11T06:46:16.680Z,1005.05
2023-01-11T06:47:16.731Z,1005.13
2023-01-11T06:48:16.940Z,1005.20
2023-01-11T06:49:16.996Z,1005.06
2023-01-11T06:50:17.296Z,1005.12
2023-01-11T06:51:17.318Z,1005.02
2023-01-11T06:52:17.494Z,1005.06
2023-01-11T06:53:17.676Z,1005.03
2023-01-11T06:54:17.750Z,1005.10
2023-01-11T06:55:17.897Z,1005.13
2023-01-11T06:56:18.093Z,1005.19
2023-01-11T06:57:18.256Z,1005.14
2023-01-11T06:58:18.470Z,1005.10
2023-01-11T06:59:18.558Z,1005.18
2023-01-11T07:00:18.742Z,1005.22
2023-01-11T07:01:18.908Z,1005.15
2023-01-11T07:02:19.015Z,1005.17
2023-01-11T07:03:19.204Z,1005.17
2023-01-11T07:04:19.391Z,1005.23
2023-01-11T07:05:19.884Z,1005.26
2023-01-11T07:06:19.744Z,1005.30
2023-01-11T07:07:19.888Z,1005.31
2023-01-11T07:08:19.968Z,1005.36
2023-01-11T07:09:20.139Z,1005.41
2023-01-11T07:10:20.329Z,1005.36
2023-01-11T07:11:20.538Z,1005.37
2023-01-11T07:12:20.749Z,1005.40
2023-01-11T07:13:20.860Z,1005.35
2023-01-11T07:14:20.920Z,1005.36
2023-01-11T07:15:21.089Z,1005.41
2023-01-11T07:16:21.364Z,1005.39
2023-01-11T07:17:21.406Z,1005.36
2023-01-11T07:18:21.610Z,1005.41
2023-01-11T07:19:21.797Z,1005.35
2023-01-11T07:20:21.974Z,1005.32
2023-01-11T07:21:22.034Z,1005.36
2023-01-11T07:22:22.550Z,1005.33
2023-01-11T07:23:22.427Z,1005.40
2023-01-11T07:24:22.556Z,1005.37
2023-01-11T07:25:22.630Z,1005.39
2023-01-11T07:26:22.917Z,1005.39
2023-01-11T07:27:22.972Z,1005.39
2023-01-11T07:28:23.184Z,1005.37
2023-01-11T07:29:23.231Z,1005.37
2023-01-11T07:30:23.423Z,1005.38
2023-01-11T07:31:23.737Z,1005.38
2023-01-11T07:32:24.355Z,1005.40
2023-01-11T07:33:23.891Z,1005.44
2023-01-11T07:34:23.947Z,1005.46
2023-01-11T07:35:24.133Z,1005.48
2023-01-11T07:36:24.333Z,1005.44
2023-01-11T07:37:28.835Z,1005.45
2023-01-11T07:38:25.543Z,1005.43
2023-01-11T07:39:34.841Z,1005.45
2023-01-11T07:40:25.877Z,1005.39
2023-01-11T07:41:24.954Z,1005.42
2023-01-11T07:42:25.051Z,1005.38
2023-01-11T07:43:25.160Z,1005.42
2023-01-11T07:44:25.232Z,1005.38
2023-01-11T07:45:31.501Z,1005.44
2023-01-11T07:46:26.517Z,1005.37
2023-01-11T07:47:25.542Z,1005.40
2023-01-11T07:48:25.728Z,1005.37
2023-01-11T07:49:25.892Z,1005.37
2023-01-11T07:50:26.065Z,1005.34
2023-01-11T07:51:26.247Z,1005.29
2023-01-11T07:52:26.435Z,1005.32
2023-01-11T07:53:26.765Z,1005.47
2023-01-11T07:54:27.515Z,1005.30
2023-01-11T07:55:26.939Z,1005.35
2023-01-11T07:56:26.912Z,1005.34
2023-01-11T07:57:27.152Z,1005.32
2023-01-11T07:58:27.392Z,1005.33
2023-01-11T07:59:27.349Z,1005.37
2023-01-11T08:00:27.541Z,1005.32
2023-01-11T08:01:27.573Z,1005.36
2023-01-11T08:02:27.825Z,1005.36
2023-01-11T08:03:28.211Z,1005.31
2023-01-11T08:04:28.153Z,1005.35
2023-01-11T08:05:28.210Z,1005.37
2023-01-11T08:06:28.390Z,1005.25
2023-01-11T08:07:28.617Z,1005.26
2023-01-11T08:08:28.706Z,1005.28
2023-01-11T08:09:28.746Z,1005.36
2023-01-11T08:10:29.058Z,1005.30
2023-01-11T08:11:29.063Z,1005.27
2023-01-11T08:12:29.148Z,1005.26
2023-01-11T08:13:29.203Z,1005.32
2023-01-11T08:14:29.411Z,1005.27
2023-01-11T08:15:29.587Z,1005.27
2023-01-11T08:16:30.028Z,1005.22
2023-01-11T08:17:29.841Z,1005.19
2023-01-11T08:18:30.096Z,1005.30
2023-01-11T08:19:30.206Z,1005.19
2023-01-11T08:20:30.264Z,1005.19
2023-01-11T08:21:30.449Z,1005.24
2023-01-11T08:22:30.725Z,1005.19
2023-01-11T08:23:30.781Z,1005.19
2023-01-11T08:24:30.945Z,1005.20
2023-01-11T08:25:31.217Z,1005.18
2023-01-11T08:26:31.367Z,1005.17
2023-01-11T08:27:31.473Z,1005.13
2023-01-11T08:28:31.561Z,1005.14
2023-01-11T08:29:31.621Z,1005.18
2023-01-11T08:30:31.848Z,1005.20
2023-01-11T08:31:31.930Z,1005.15
2023-01-11T08:32:32.182Z,1005.07
2023-01-11T08:33:32.236Z,1005.08
2023-01-11T08:34:33.799Z,1005.08
2023-01-11T08:35:32.668Z,1005.10
2023-01-11T08:36:32.729Z,1005.16
2023-01-11T08:37:32.920Z,1005.10
2023-01-11T08:38:33.114Z,1005.12
2023-01-11T08:39:33.186Z,1005.10
2023-01-11T08:40:33.366Z,1005.05
2023-01-11T08:41:33.633Z,1005.14
2023-01-11T08:42:33.688Z,1005.16
2023-01-11T08:43:33.883Z,1005.08
2023-01-11T08:44:34.835Z,1005.10
2023-01-11T08:45:34.222Z,1005.10
2023-01-11T08:46:34.500Z,1005.14
2023-01-11T08:47:34.486Z,1005.17
2023-01-11T08:48:34.696Z,1005.13
2023-01-11T08:49:34.732Z,1005.16
2023-01-11T08:50:34.896Z,1005.13
2023-01-11T08:51:35.065Z,1005.19
2023-01-11T08:52:35.225Z,1005.16
2023-01-11T08:53:35.381Z,1005.17
2023-01-11T08:54:35.548Z,1005.11
2023-01-11T08:55:35.745Z,1005.16
2023-01-11T08:56:35.862Z,1005.12
2023-01-11T08:57:36.020Z,1005.08
2023-01-11T08:58:36.227Z,1005.09
2023-01-11T08:59:36.277Z,1005.07
2023-01-11T09:00:36.441Z,1005.15
2023-01-11T09:01:36.602Z,1005.09
2023-01-11T09:02:36.770Z,1005.07
2023-01-11T09:03:36.895Z,1005.08
2023-01-11T09:04:37.048Z,1005.14
2023-01-11T09:05:37.205Z,1005.09
2023-01-11T09:06:37.359Z,1005.10
2023-01-11T09:07:37.622Z,1005.06
2023-01-11T09:08:37.749Z,1005.14
2023-01-11T09:09:37.891Z,1005.09
2023-01-11T09:10:37.977Z,1005.11
2023-01-11T09:11:38.030Z,1005.09
2023-01-11T09:12:38.261Z,1005.08
2023-01-11T09:13:38.305Z,1004.97
2023-01-11T09:14:38.502Z,1005.01
2023-01-11T09:15:38.649Z,1005.04
2023-01-11T09:16:38.938Z,1005.01
2023-01-11T09:17:38.924Z,1004.90
2023-01-11T09:18:39.141Z,1004.99
2023-01-11T09:19:39.213Z,1004.95
2023-01-11T09:20:39.371Z,1004.95
2023-01-11T09:21:39.529Z,1004.94
2023-01-11T09:22:39.728Z,1005.08
2023-01-11T09:23:39.815Z,1004.99
2023-01-11T09:24:39.849Z,1004.95
2023-01-11T09:25:39.980Z,1004.99
2023-01-11T09:26:40.164Z,1004.96
2023-01-11T09:27:40.293Z,1004.96
2023-01-11T09:28:40.495Z,1004.96
2023-01-11T09:29:40.673Z,1005.06
2023-01-11T09:30:40.822Z,1004.90
2023-01-11T09:31:40.994Z,1004.95
2023-01-11T09:32:41.128Z,1004.91
2023-01-11T09:33:41.234Z,1004.94
2023-01-11T09:34:41.359Z,1005.02
2023-01-11T09:35:41.413Z,1004.90
2023-01-11T09:36:41.592Z,1005.00
2023-01-11T09:37:41.833Z,1004.90
2023-01-11T09:38:41.909Z,1005.11
2023-01-11T09:39:42.130Z,1004.84
2023-01-11T09:40:42.179Z,1004.87
2023-01-11T09:41:42.377Z,1004.84
2023-01-11T09:42:42.546Z,1004.94
2023-01-11T09:43:42.752Z,1004.83
2023-01-11T09:44:42.973Z,1004.79
2023-01-11T09:45:43.078Z,1004.78
2023-01-11T09:46:43.658Z,1004.84
2023-01-11T09:47:43.439Z,1004.73
2023-01-11T09:48:43.977Z,1004.81
2023-01-11T09:49:43.739Z,1004.78
2023-01-11T09:50:44.462Z,1004.81
2023-01-11T09:51:44.000Z,1004.75
2023-01-11T09:52:44.204Z,1004.77
2023-01-11T09:53:44.453Z,1004.75
2023-01-11T09:54:44.546Z,1004.71
2023-01-11T09:55:44.625Z,1004.77
2023-01-11T09:56:44.789Z,1004.73
2023-01-11T09:57:52.149Z,1004.77
2023-01-11T09:58:45.804Z,1004.74
2023-01-11T09:59:45.195Z,1004.72
2023-01-11T10:00:45.424Z,1004.80
2023-01-11T10:01:45.541Z,1004.67
2023-01-11T10:02:45.627Z,1004.78
2023-01-11T10:03:45.775Z,1004.69
2023-01-11T10:04:45.907Z,1004.65
2023-01-11T10:05:45.956Z,1004.66
2023-01-11T10:06:46.142Z,1004.68
2023-01-11T10:07:46.324Z,1004.67
2023-01-11T10:18:29.665Z,1004.50
2023-01-11T10:18:33.924Z,1004.60
2023-01-11T10:18:38.764Z,1004.47
2023-01-11T10:18:43.437Z,1004.50
2023-01-11T10:19:18.041Z,1004.50
2023-01-11T10:19:48.877Z,1004.49
2023-01-11T10:20:47.924Z,1004.49
2023-01-11T10:21:48.090Z,1004.47
2023-01-11T10:22:48.266Z,1004.45
2023-01-11T10:23:48.460Z,1004.46
2023-01-11T10:24:48.611Z,1004.45
2023-01-11T10:25:48.717Z,1004.44
2023-01-11T10:26:48.883Z,1004.41
2023-01-11T10:27:48.939Z,1004.42
2023-01-11T10:28:49.099Z,1004.43
2023-01-11T10:29:49.281Z,1004.40
2023-01-11T10:30:49.358Z,1004.44
2023-01-11T10:31:49.629Z,1004.41
2023-01-11T10:32:49.618Z,1004.34
2023-01-11T10:33:49.786Z,1004.30
2023-01-11T10:34:49.967Z,1004.31
2023-01-11T10:35:50.149Z,1004.33
2023-01-11T10:36:50.268Z,1004.29
2023-01-11T10:37:50.374Z,1004.34
2023-01-11T10:38:50.427Z,1004.30
2023-01-11T10:39:50.589Z,1004.34
2023-01-11T10:40:50.737Z,1004.32
2023-01-11T10:41:50.930Z,1004.28
2023-01-11T10:42:51.011Z,1004.25
2023-01-11T10:43:51.073Z,1004.23
2023-01-11T10:44:51.237Z,1004.20
2023-01-11T10:45:51.518Z,1004.27
2023-01-11T10:46:51.543Z,1004.23
2023-01-11T10:47:51.728Z,1004.22
2023-01-11T10:48:51.906Z,1004.22
2023-01-11T10:49:52.057Z,1004.23
2023-01-11T10:50:52.304Z,1004.22
2023-01-11T10:51:52.347Z,1004.21
2023-01-11T10:52:52.581Z,1004.21
2023-01-11T10:53:52.666Z,1004.15
2023-01-11T10:54:52.720Z,1004.27
2023-01-11T10:55:52.897Z,1004.18
2023-01-11T10:57:02.744Z,1004.16
2023-01-11T10:58:01.796Z,1004.29
2023-01-11T10:58:54.310Z,1004.30
2023-01-11T10:59:54.298Z,1004.15
2023-01-11T11:00:53.592Z,1004.21
2023-01-11T11:01:53.657Z,1004.16
2023-01-11T11:02:53.796Z,1004.15
2023-01-11T11:03:53.935Z,1004.13
2023-01-11T11:04:54.091Z,1004.11
2023-01-11T11:05:54.251Z,1004.10
2023-01-11T11:06:54.377Z,1004.09
2023-01-11T11:07:54.524Z,1004.08
2023-01-11T11:08:54.663Z,1004.08
2023-01-11T11:09:54.832Z,1004.06
2023-01-11T11:10:55.027Z,1004.08
2023-01-11T11:11:55.073Z,1004.06
2023-01-11T11:12:55.218Z,1004.08
2023-01-11T11:13:55.408Z,1004.00
2023-01-11T11:14:55.438Z,1004.01
2023-01-11T11:15:58.125Z,1004.12
2023-01-11T11:16:55.761Z,1004.00
2023-01-11T11:17:55.928Z,1003.99
2023-01-11T11:18:56.101Z,1003.97
2023-01-11T11:19:56.202Z,1003.91
2023-01-11T11:20:56.349Z,1003.89
2023-01-11T11:21:56.531Z,1003.93
2023-01-11T11:22:56.597Z,1003.92
2023-01-11T11:23:56.649Z,1003.86
2023-01-11T11:24:56.820Z,1003.85
2023-01-11T11:25:56.991Z,1003.87
2023-01-11T11:26:57.044Z,1003.90
2023-01-11T11:27:57.192Z,1003.86
2023-01-11T11:28:57.401Z,1003.84
2023-01-11T11:29:57.467Z,1003.90
2023-01-11T11:30:57.621Z,1003.82
2023-01-11T11:31:57.783Z,1003.84
2023-01-11T11:32:57.913Z,1003.89
2023-01-11T11:33:58.090Z,1003.87
2023-01-11T11:34:58.247Z,1003.89
2023-01-11T11:35:58.462Z,1003.86
2023-01-11T11:36:58.513Z,1003.81
2023-01-11T11:37:58.659Z,1003.74
2023-01-11T11:38:58.856Z,1003.70
2023-01-11T11:39:58.900Z,1003.70
2023-01-11T11:40:59.099Z,1003.73
2023-01-11T11:41:59.142Z,1003.68
2023-01-11T11:42:59.283Z,1003.69
2023-01-11T11:43:59.441Z,1003.63
2023-01-11T11:44:59.592Z,1003.74
2023-01-11T11:45:59.850Z,1003.66
2023-01-11T11:47:00.053Z,1003.66
2023-01-11T11:48:00.108Z,1003.71
2023-01-11T11:49:00.258Z,1003.77
2023-01-11T11:50:00.427Z,1003.64
2023-01-11T11:51:00.577Z,1003.64
2023-01-11T11:52:00.764Z,1003.72
2023-01-11T11:53:00.886Z,1003.62
2023-01-11T11:54:01.148Z,1003.61
2023-01-11T11:55:01.177Z,1003.60
2023-01-11T11:56:01.337Z,1003.57
2023-01-11T11:57:01.476Z,1003.57
2023-01-11T11:58:01.627Z,1003.52
2023-01-11T11:59:01.768Z,1003.53
2023-01-11T12:00:01.949Z,1003.56
2023-01-11T12:01:02.094Z,1003.49
2023-01-11T12:02:02.324Z,1003.44
2023-01-11T12:03:02.345Z,1003.57
2023-01-11T12:04:02.516Z,1003.50
2023-01-11T12:05:02.710Z,1003.47
2023-01-11T12:06:02.792Z,1003.48
2023-01-11T12:07:02.866Z,1003.45
2023-01-11T12:08:02.921Z,1003.46
2023-01-11T12:09:03.070Z,1003.53
2023-01-11T12:10:03.196Z,1003.42
2023-01-11T12:11:03.422Z,1003.47
2023-01-11T12:12:03.551Z,1003.46
2023-01-11T12:13:03.595Z,1003.41